sensor_id;sensor_type;location;lat;lon;timestamp;pressure;altitude;pressure_sealevel;temperature;humidity
59274;BME280;45044;41.572;24.730;2023-09-19T00:00:39;91812.13;;;9.02;100.00
59274;BME280;45044;41.572;24.730;2023-09-19T00:03:07;91819.34;;;8.85;100.00
59274;BME280;45044;41.572;24.730;2023-09-19T00:05:37;91811.13;;;8.87;100.00
59274;BME280;45044;41.572;24.730;2023-09-19T00:08:12;91819.53;;;8.96;100.00
59274;BME280;45044;41.572;24.730;2023-09-19T00:10:42;91810.50;;;8.94;100.00
59274;BME280;45044;41.572;24.730;2023-09-19T00:13:10;91799.00;;;9.02;100.00
59274;BME280;45044;41.572;24.730;2023-09-19T00:15:44;91794.53;;;8.79;100.00
59274;BME280;45044;41.572;24.730;2023-09-19T00:18:17;91803.66;;;8.89;100.00
59274;BME280;45044;41.572;24.730;2023-09-19T00:20:47;91805.81;;;8.83;100.00
59274;BME280;45044;41.572;24.730;2023-09-19T00:23:18;91797.63;;;8.85;100.00
59274;BME280;45044;41.572;24.730;2023-09-19T00:25:46;91797.41;;;8.70;100.00
59274;BME280;45044;41.572;24.730;2023-09-19T00:28:13;91801.03;;;8.89;100.00
59274;BME280;45044;41.572;24.730;2023-09-19T00:30:43;91799.38;;;8.77;100.00
59274;BME280;45044;41.572;24.730;2023-09-19T00:33:11;91802.06;;;8.81;100.00
59274;BME280;45044;41.572;24.730;2023-09-19T00:35:50;91799.44;;;8.81;100.00
59274;BME280;45044;41.572;24.730;2023-09-19T00:38:17;91791.19;;;8.59;100.00
59274;BME280;45044;41.572;24.730;2023-09-19T00:40:47;91786.91;;;8.70;100.00
59274;BME280;45044;41.572;24.730;2023-09-19T00:43:14;91787.16;;;8.65;100.00
59274;BME280;45044;41.572;24.730;2023-09-19T00:45:48;91785.66;;;8.64;100.00
59274;BME280;45044;41.572;24.730;2023-09-19T00:48:19;91783.41;;;8.43;100.00
59274;BME280;45044;41.572;24.730;2023-09-19T00:50:48;91780.97;;;8.54;100.00
59274;BME280;45044;41.572;24.730;2023-09-19T00:53:20;91778.66;;;8.48;100.00
59274;BME280;45044;41.572;24.730;2023-09-19T00:55:48;91780.63;;;8.55;100.00
59274;BME280;45044;41.572;24.730;2023-09-19T00:58:17;91783.81;;;8.65;100.00
59274;BME280;45044;41.572;24.730;2023-09-19T01:00:47;91784.56;;;8.65;100.00
59274;BME280;45044;41.572;24.730;2023-09-19T01:03:14;91796.16;;;8.44;100.00
59274;BME280;45044;41.572;24.730;2023-09-19T01:05:41;91791.13;;;8.55;100.00
59274;BME280;45044;41.572;24.730;2023-09-19T01:08:09;91788.16;;;8.57;100.00
59274;BME280;45044;41.572;24.730;2023-09-19T01:10:46;91792.97;;;8.55;100.00
59274;BME280;45044;41.572;24.730;2023-09-19T01:13:53;91787.88;;;8.42;100.00
59274;BME280;45044;41.572;24.730;2023-09-19T01:16:32;91784.31;;;8.50;100.00
59274;BME280;45044;41.572;24.730;2023-09-19T01:30:36;91790.53;;;7.83;100.00
59274;BME280;45044;41.572;24.730;2023-09-19T01:33:06;91781.63;;;8.07;100.00
59274;BME280;45044;41.572;24.730;2023-09-19T01:35:34;91781.44;;;8.16;100.00
59274;BME280;45044;41.572;24.730;2023-09-19T01:38:06;91781.03;;;8.14;100.00
59274;BME280;45044;41.572;24.730;2023-09-19T01:40:41;91778.75;;;8.12;100.00
59274;BME280;45044;41.572;24.730;2023-09-19T01:43:18;91778.75;;;7.93;100.00
59274;BME280;45044;41.572;24.730;2023-09-19T01:51:39;91765.56;;;8.09;100.00
59274;BME280;45044;41.572;24.730;2023-09-19T01:54:11;91770.81;;;8.09;100.00
59274;BME280;45044;41.572;24.730;2023-09-19T01:56:53;91769.47;;;7.95;100.00
59274;BME280;45044;41.572;24.730;2023-09-19T01:59:30;91763.94;;;8.00;100.00
59274;BME280;45044;41.572;24.730;2023-09-19T02:02:00;91768.91;;;8.06;100.00
59274;BME280;45044;41.572;24.730;2023-09-19T02:04:28;91750.56;;;8.06;100.00
59274;BME280;45044;41.572;24.730;2023-09-19T02:06:55;91761.47;;;8.08;100.00
59274;BME280;45044;41.572;24.730;2023-09-19T02:09:22;91770.00;;;8.05;100.00
59274;BME280;45044;41.572;24.730;2023-09-19T02:11:49;91759.41;;;7.97;100.00
59274;BME280;45044;41.572;24.730;2023-09-19T02:14:16;91766.78;;;7.91;100.00
59274;BME280;45044;41.572;24.730;2023-09-19T02:16:42;91761.75;;;8.02;100.00
59274;BME280;45044;41.572;24.730;2023-09-19T02:19:09;91767.47;;;7.88;100.00
59274;BME280;45044;41.572;24.730;2023-09-19T02:21:36;91763.25;;;7.84;100.00
59274;BME280;45044;41.572;24.730;2023-09-19T02:24:03;91759.41;;;7.97;100.00
59274;BME280;45044;41.572;24.730;2023-09-19T02:26:30;91759.38;;;8.17;100.00
59274;BME280;45044;41.572;24.730;2023-09-19T02:28:57;91758.22;;;8.14;100.00
59274;BME280;45044;41.572;24.730;2023-09-19T02:31:24;91739.97;;;7.98;100.00
59274;BME280;45044;41.572;24.730;2023-09-19T02:33:51;91761.53;;;7.91;100.00
59274;BME280;45044;41.572;24.730;2023-09-19T02:36:17;91749.75;;;7.82;100.00
59274;BME280;45044;41.572;24.730;2023-09-19T02:38:45;91744.38;;;7.94;100.00
59274;BME280;45044;41.572;24.730;2023-09-19T02:41:11;91756.94;;;7.85;100.00
59274;BME280;45044;41.572;24.730;2023-09-19T02:43:38;91743.84;;;7.85;100.00
59274;BME280;45044;41.572;24.730;2023-09-19T02:46:06;91745.00;;;7.87;100.00
59274;BME280;45044;41.572;24.730;2023-09-19T02:48:33;91756.06;;;7.41;100.00
59274;BME280;45044;41.572;24.730;2023-09-19T02:51:02;91753.25;;;7.70;100.00
59274;BME280;45044;41.572;24.730;2023-09-19T02:53:32;91751.41;;;7.70;100.00
59274;BME280;45044;41.572;24.730;2023-09-19T02:55:58;91737.91;;;7.68;100.00
59274;BME280;45044;41.572;24.730;2023-09-19T02:58:25;91734.59;;;7.71;100.00
59274;BME280;45044;41.572;24.730;2023-09-19T03:00:54;91741.59;;;7.67;100.00
59274;BME280;45044;41.572;24.730;2023-09-19T03:03:22;91739.47;;;7.73;100.00
59274;BME280;45044;41.572;24.730;2023-09-19T03:05:49;91729.84;;;7.77;100.00
59274;BME280;45044;41.572;24.730;2023-09-19T03:08:20;91741.59;;;7.67;100.00
59274;BME280;45044;41.572;24.730;2023-09-19T03:10:48;91741.53;;;7.63;100.00
59274;BME280;45044;41.572;24.730;2023-09-19T03:13:16;91747.31;;;7.53;100.00
59274;BME280;45044;41.572;24.730;2023-09-19T03:15:43;91748.09;;;7.53;100.00
59274;BME280;45044;41.572;24.730;2023-09-19T03:18:12;91742.22;;;7.60;100.00
59274;BME280;45044;41.572;24.730;2023-09-19T03:20:40;91741.59;;;7.67;100.00
59274;BME280;45044;41.572;24.730;2023-09-19T03:23:07;91741.47;;;7.60;100.00
59274;BME280;45044;41.572;24.730;2023-09-19T03:25:35;91751.94;;;7.60;100.00
59274;BME280;45044;41.572;24.730;2023-09-19T03:28:04;91754.31;;;7.65;100.00
59274;BME280;45044;41.572;24.730;2023-09-19T03:30:32;91747.69;;;7.71;100.00
59274;BME280;45044;41.572;24.730;2023-09-19T03:33:00;91746.56;;;7.52;100.00
59274;BME280;45044;41.572;24.730;2023-09-19T03:35:27;91742.22;;;7.40;100.00
59274;BME280;45044;41.572;24.730;2023-09-19T03:37:54;91756.78;;;7.58;100.00
59274;BME280;45044;41.572;24.730;2023-09-19T03:40:21;91760.63;;;7.64;100.00
59274;BME280;45044;41.572;24.730;2023-09-19T03:42:49;91762.47;;;7.63;100.00
59274;BME280;45044;41.572;24.730;2023-09-19T03:45:16;91756.84;;;7.61;100.00
59274;BME280;45044;41.572;24.730;2023-09-19T03:47:45;91764.47;;;7.50;100.00
59274;BME280;45044;41.572;24.730;2023-09-19T03:50:14;91759.91;;;7.47;100.00
59274;BME280;45044;41.572;24.730;2023-09-19T03:52:44;91765.09;;;7.27;100.00
59274;BME280;45044;41.572;24.730;2023-09-19T03:55:12;91757.31;;;6.95;100.00
59274;BME280;45044;41.572;24.730;2023-09-19T03:57:39;91767.25;;;7.05;100.00
59274;BME280;45044;41.572;24.730;2023-09-19T04:00:06;91757.09;;;7.20;100.00
59274;BME280;45044;41.572;24.730;2023-09-19T04:02:39;91767.38;;;7.29;100.00
59274;BME280;45044;41.572;24.730;2023-09-19T04:05:06;91765.91;;;7.48;100.00
59274;BME280;45044;41.572;24.730;2023-09-19T04:07:33;91765.47;;;7.46;100.00
59274;BME280;45044;41.572;24.730;2023-09-19T04:10:02;91767.06;;;7.30;100.00
59274;BME280;45044;41.572;24.730;2023-09-19T04:12:30;91767.25;;;7.05;100.00
59274;BME280;45044;41.572;24.730;2023-09-19T04:14:58;91772.28;;;7.14;100.00
59274;BME280;45044;41.572;24.730;2023-09-19T04:17:25;91775.81;;;7.22;100.00
59274;BME280;45044;41.572;24.730;2023-09-19T04:19:52;91783.41;;;7.27;100.00
59274;BME280;45044;41.572;24.730;2023-09-19T04:22:20;91795.41;;;7.28;100.00
59274;BME280;45044;41.572;24.730;2023-09-19T04:24:46;91791.91;;;7.40;100.00
59274;BME280;45044;41.572;24.730;2023-09-19T04:27:14;91787.06;;;7.59;100.00
59274;BME280;45044;41.572;24.730;2023-09-19T04:29:41;91784.31;;;7.71;100.00
59274;BME280;45044;41.572;24.730;2023-09-19T04:32:08;91791.09;;;7.72;100.00
59274;BME280;45044;41.572;24.730;2023-09-19T04:34:36;91787.34;;;7.73;100.00
59274;BME280;45044;41.572;24.730;2023-09-19T04:37:05;91795.63;;;7.75;100.00
59274;BME280;45044;41.572;24.730;2023-09-19T04:39:32;91783.63;;;7.38;100.00
59274;BME280;45044;41.572;24.730;2023-09-19T04:41:58;91794.22;;;7.62;100.00
59274;BME280;45044;41.572;24.730;2023-09-19T04:44:26;91793.78;;;7.60;100.00
59274;BME280;45044;41.572;24.730;2023-09-19T04:46:52;91784.31;;;7.71;100.00
59274;BME280;45044;41.572;24.730;2023-09-19T04:49:19;91789.19;;;7.73;100.00
59274;BME280;45044;41.572;24.730;2023-09-19T04:51:46;91787.63;;;7.68;100.00
59274;BME280;45044;41.572;24.730;2023-09-19T04:54:13;91788.63;;;7.79;100.00
59274;BME280;45044;41.572;24.730;2023-09-19T04:56:41;91792.59;;;7.93;100.00
59274;BME280;45044;41.572;24.730;2023-09-19T04:59:08;91795.97;;;7.94;100.00
59274;BME280;45044;41.572;24.730;2023-09-19T05:01:37;91792.66;;;7.97;100.00
59274;BME280;45044;41.572;24.730;2023-09-19T05:04:04;91791.84;;;7.93;100.00
59274;BME280;45044;41.572;24.730;2023-09-19T05:06:32;91790.13;;;8.00;100.00
59274;BME280;45044;41.572;24.730;2023-09-19T05:09:01;91788.75;;;8.07;100.00
59274;BME280;45044;41.572;24.730;2023-09-19T05:11:31;91791.66;;;8.21;100.00
59274;BME280;45044;41.572;24.730;2023-09-19T05:13:58;91795.84;;;8.26;100.00
59274;BME280;45044;41.572;24.730;2023-09-19T05:16:30;91782.03;;;8.29;100.00
59274;BME280;45044;41.572;24.730;2023-09-19T05:19:00;91784.56;;;8.45;100.00
59274;BME280;45044;41.572;24.730;2023-09-19T05:21:28;91787.75;;;8.35;100.00
59274;BME280;45044;41.572;24.730;2023-09-19T05:23:56;91771.56;;;8.72;100.00
59274;BME280;45044;41.572;24.730;2023-09-19T05:26:23;91792.03;;;11.09;100.00
59274;BME280;45044;41.572;24.730;2023-09-19T05:28:50;91801.53;;;13.40;100.00
59274;BME280;45044;41.572;24.730;2023-09-19T05:31:16;91795.16;;;15.24;100.00
59274;BME280;45044;41.572;24.730;2023-09-19T05:33:43;91800.16;;;16.66;100.00
59274;BME280;45044;41.572;24.730;2023-09-19T05:36:10;91793.34;;;17.92;100.00
59274;BME280;45044;41.572;24.730;2023-09-19T05:38:38;91799.38;;;18.74;100.00
59274;BME280;45044;41.572;24.730;2023-09-19T05:41:08;91791.69;;;19.80;93.77
59274;BME280;45044;41.572;24.730;2023-09-19T05:43:40;91790.69;;;20.03;88.25
59274;BME280;45044;41.572;24.730;2023-09-19T05:46:08;91796.38;;;21.30;78.97
59274;BME280;45044;41.572;24.730;2023-09-19T05:48:35;91797.00;;;22.41;68.63
59274;BME280;45044;41.572;24.730;2023-09-19T05:51:02;91797.94;;;22.69;64.65
59274;BME280;45044;41.572;24.730;2023-09-19T05:53:29;91795.06;;;23.37;60.65
59274;BME280;45044;41.572;24.730;2023-09-19T05:55:56;91798.13;;;23.76;58.12
59274;BME280;45044;41.572;24.730;2023-09-19T05:58:23;91802.16;;;24.56;54.91
59274;BME280;45044;41.572;24.730;2023-09-19T06:00:50;91799.81;;;24.92;54.65
59274;BME280;45044;41.572;24.730;2023-09-19T06:03:16;91799.47;;;25.43;51.69
59274;BME280;45044;41.572;24.730;2023-09-19T06:05:45;91792.97;;;25.83;50.86
59274;BME280;45044;41.572;24.730;2023-09-19T06:08:12;91790.22;;;26.33;50.06
59274;BME280;45044;41.572;24.730;2023-09-19T06:10:39;91797.19;;;26.39;49.74
59274;BME280;45044;41.572;24.730;2023-09-19T06:13:06;91791.59;;;25.88;52.03
59274;BME280;45044;41.572;24.730;2023-09-19T06:15:36;91790.16;;;26.87;48.71
59274;BME280;45044;41.572;24.730;2023-09-19T06:18:03;91779.00;;;27.46;47.74
59274;BME280;45044;41.572;24.730;2023-09-19T06:20:31;91801.13;;;26.99;47.33
59274;BME280;45044;41.572;24.730;2023-09-19T06:23:00;91788.84;;;26.98;47.64
59274;BME280;45044;41.572;24.730;2023-09-19T06:25:29;91789.44;;;26.72;48.02
59274;BME280;45044;41.572;24.730;2023-09-19T06:27:56;91791.47;;;26.77;48.99
59274;BME280;45044;41.572;24.730;2023-09-19T06:30:24;91788.28;;;27.45;48.10
59274;BME280;45044;41.572;24.730;2023-09-19T06:33:01;91782.78;;;27.96;46.65
59274;BME280;45044;41.572;24.730;2023-09-19T06:35:32;91796.66;;;26.65;48.70
59274;BME280;45044;41.572;24.730;2023-09-19T06:38:03;91790.19;;;27.59;47.25
59274;BME280;45044;41.572;24.730;2023-09-19T06:40:30;91799.38;;;28.51;46.87
59274;BME280;45044;41.572;24.730;2023-09-19T06:42:58;91789.81;;;29.15;45.76
59274;BME280;45044;41.572;24.730;2023-09-19T06:45:24;91789.78;;;27.10;48.43
59274;BME280;45044;41.572;24.730;2023-09-19T06:47:53;91791.53;;;28.32;46.27
59274;BME280;45044;41.572;24.730;2023-09-19T06:50:25;91787.38;;;28.58;46.52
59274;BME280;45044;41.572;24.730;2023-09-19T06:52:53;91788.50;;;27.77;45.95
59274;BME280;45044;41.572;24.730;2023-09-19T06:55:22;91786.88;;;26.98;48.50
59274;BME280;45044;41.572;24.730;2023-09-19T06:57:52;91775.25;;;27.79;47.48
59274;BME280;45044;41.572;24.730;2023-09-19T07:00:21;91789.09;;;28.88;46.28
59274;BME280;45044;41.572;24.730;2023-09-19T07:03:00;91786.59;;;27.83;46.95
59274;BME280;45044;41.572;24.730;2023-09-19T07:05:28;91770.28;;;29.43;44.80
59274;BME280;45044;41.572;24.730;2023-09-19T07:07:55;91771.41;;;29.63;44.50
59274;BME280;45044;41.572;24.730;2023-09-19T07:10:22;91763.38;;;26.99;48.35
59274;BME280;45044;41.572;24.730;2023-09-19T07:13:01;91773.47;;;27.55;48.61
59274;BME280;45044;41.572;24.730;2023-09-19T07:15:31;91765.97;;;28.87;46.51
59274;BME280;45044;41.572;24.730;2023-09-19T07:18:00;91764.50;;;28.86;46.52
59274;BME280;45044;41.572;24.730;2023-09-19T07:20:28;91764.00;;;28.55;46.41
59274;BME280;45044;41.572;24.730;2023-09-19T07:22:59;91759.59;;;28.10;48.33
59274;BME280;45044;41.572;24.730;2023-09-19T07:25:30;91753.09;;;29.02;46.01
59274;BME280;45044;41.572;24.730;2023-09-19T07:27:58;91746.75;;;27.78;47.52
59274;BME280;45044;41.572;24.730;2023-09-19T07:30:28;91744.91;;;27.27;49.38
59274;BME280;45044;41.572;24.730;2023-09-19T07:32:55;91743.84;;;28.56;48.07
59274;BME280;45044;41.572;24.730;2023-09-19T07:35:22;91748.66;;;26.09;51.00
59274;BME280;45044;41.572;24.730;2023-09-19T07:37:49;91749.59;;;23.24;79.55
59274;BME280;45044;41.572;24.730;2023-09-19T07:40:19;91750.72;;;22.63;79.19
59274;BME280;45044;41.572;24.730;2023-09-19T07:42:47;91739.25;;;23.73;71.72
59274;BME280;45044;41.572;24.730;2023-09-19T07:45:14;91742.94;;;26.47;57.30
59274;BME280;45044;41.572;24.730;2023-09-19T07:47:45;91739.31;;;27.31;52.96
59274;BME280;45044;41.572;24.730;2023-09-19T07:50:16;91737.72;;;26.13;54.29
59274;BME280;45044;41.572;24.730;2023-09-19T07:52:47;91738.81;;;26.06;55.57
59274;BME280;45044;41.572;24.730;2023-09-19T07:55:14;91723.06;;;26.59;54.53
59274;BME280;45044;41.572;24.730;2023-09-19T07:57:44;91727.22;;;24.58;60.91
59274;BME280;45044;41.572;24.730;2023-09-19T08:00:11;91726.22;;;27.45;52.99
59274;BME280;45044;41.572;24.730;2023-09-19T08:02:39;91725.22;;;27.42;51.90
59274;BME280;45044;41.572;24.730;2023-09-19T08:05:08;91718.91;;;28.40;48.09
59274;BME280;45044;41.572;24.730;2023-09-19T08:07:39;91713.72;;;28.37;48.66
59274;BME280;45044;41.572;24.730;2023-09-19T08:10:07;91726.00;;;28.70;47.85
59274;BME280;45044;41.572;24.730;2023-09-19T08:12:34;91714.94;;;29.00;46.92
59274;BME280;45044;41.572;24.730;2023-09-19T08:15:05;91724.88;;;27.55;50.56
59274;BME280;45044;41.572;24.730;2023-09-19T08:17:35;91716.72;;;28.18;48.66
59274;BME280;45044;41.572;24.730;2023-09-19T08:20:02;91712.19;;;28.94;46.36
59274;BME280;45044;41.572;24.730;2023-09-19T08:22:31;91710.50;;;30.08;44.19
59274;BME280;45044;41.572;24.730;2023-09-19T08:24:58;91716.56;;;29.30;46.28
59274;BME280;45044;41.572;24.730;2023-09-19T08:27:25;91702.03;;;29.83;43.95
59274;BME280;45044;41.572;24.730;2023-09-19T08:29:55;91702.69;;;29.60;44.25
59274;BME280;45044;41.572;24.730;2023-09-19T08:32:22;91700.22;;;30.35;44.42
59274;BME280;45044;41.572;24.730;2023-09-19T08:34:51;91701.34;;;28.94;44.90
59274;BME280;45044;41.572;24.730;2023-09-19T08:37:17;91698.19;;;30.18;45.87
59274;BME280;45044;41.572;24.730;2023-09-19T08:39:45;91699.88;;;28.29;47.15
59274;BME280;45044;41.572;24.730;2023-09-19T08:42:12;91681.97;;;27.78;46.76
59274;BME280;45044;41.572;24.730;2023-09-19T08:44:40;91696.41;;;27.75;47.53
59274;BME280;45044;41.572;24.730;2023-09-19T08:47:11;91690.22;;;29.25;46.13
59274;BME280;45044;41.572;24.730;2023-09-19T08:52:19;91684.00;;;28.37;45.96
59274;BME280;45044;41.572;24.730;2023-09-19T08:54:48;91689.25;;;27.09;49.47
59274;BME280;45044;41.572;24.730;2023-09-19T08:57:19;91684.13;;;27.53;47.21
59274;BME280;45044;41.572;24.730;2023-09-19T08:59:48;91677.97;;;28.27;45.27
59274;BME280;45044;41.572;24.730;2023-09-19T09:02:16;91684.91;;;28.98;45.84
59274;BME280;45044;41.572;24.730;2023-09-19T09:04:48;91680.31;;;27.86;45.90
59274;BME280;45044;41.572;24.730;2023-09-19T09:07:16;91670.75;;;28.39;45.97
59274;BME280;45044;41.572;24.730;2023-09-19T09:09:45;91677.41;;;27.90;47.31
59274;BME280;45044;41.572;24.730;2023-09-19T09:12:14;91664.59;;;29.14;45.27
59274;BME280;45044;41.572;24.730;2023-09-19T09:14:45;91663.22;;;28.92;46.73
59274;BME280;45044;41.572;24.730;2023-09-19T09:17:17;91656.16;;;28.63;47.33
59274;BME280;45044;41.572;24.730;2023-09-19T09:19:47;91663.00;;;30.30;43.74
59274;BME280;45044;41.572;24.730;2023-09-19T09:22:14;91639.50;;;29.92;43.95
59274;BME280;45044;41.572;24.730;2023-09-19T09:24:53;91650.09;;;29.84;44.16
59274;BME280;45044;41.572;24.730;2023-09-19T09:27:20;91649.31;;;27.55;50.82
59274;BME280;45044;41.572;24.730;2023-09-19T09:29:51;91639.75;;;27.33;48.91
59274;BME280;45044;41.572;24.730;2023-09-19T09:32:29;91644.91;;;28.70;49.23
59274;BME280;45044;41.572;24.730;2023-09-19T09:35:01;91641.56;;;28.87;46.34
59274;BME280;45044;41.572;24.730;2023-09-19T09:37:31;91635.06;;;29.77;45.91
59274;BME280;45044;41.572;24.730;2023-09-19T09:40:02;91629.00;;;29.27;46.13
59274;BME280;45044;41.572;24.730;2023-09-19T09:42:41;91626.53;;;28.80;48.53
59274;BME280;45044;41.572;24.730;2023-09-19T09:45:16;91631.53;;;28.93;46.48
59274;BME280;45044;41.572;24.730;2023-09-19T09:48:04;91626.63;;;28.53;45.20
59274;BME280;45044;41.572;24.730;2023-09-19T09:50:48;91616.63;;;27.74;48.87
59274;BME280;45044;41.572;24.730;2023-09-19T09:53:26;91621.06;;;28.04;50.70
59274;BME280;45044;41.572;24.730;2023-09-19T09:56:06;91617.97;;;27.37;50.10
59274;BME280;45044;41.572;24.730;2023-09-19T09:58:35;91619.34;;;27.53;49.90
59274;BME280;45044;41.572;24.730;2023-09-19T10:01:04;91615.28;;;27.43;50.60
59274;BME280;45044;41.572;24.730;2023-09-19T10:03:42;91609.16;;;26.28;49.88
59274;BME280;45044;41.572;24.730;2023-09-19T10:06:17;91615.66;;;26.22;53.52
59274;BME280;45044;41.572;24.730;2023-09-19T10:09:08;91614.84;;;25.85;56.19
59274;BME280;45044;41.572;24.730;2023-09-19T10:11:48;91599.84;;;25.54;63.38
59274;BME280;45044;41.572;24.730;2023-09-19T10:14:29;91606.31;;;25.32;60.70
59274;BME280;45044;41.572;24.730;2023-09-19T10:16:59;91604.19;;;25.91;62.49
59274;BME280;45044;41.572;24.730;2023-09-19T10:19:36;91598.00;;;25.05;59.56
59274;BME280;45044;41.572;24.730;2023-09-19T10:22:05;91601.72;;;25.47;53.97
59274;BME280;45044;41.572;24.730;2023-09-19T10:24:36;91605.69;;;25.37;56.94
59274;BME280;45044;41.572;24.730;2023-09-19T10:27:25;91589.19;;;25.05;54.34
59274;BME280;45044;41.572;24.730;2023-09-19T10:29:53;91589.81;;;25.24;53.97
59274;BME280;45044;41.572;24.730;2023-09-19T10:32:22;91583.97;;;25.26;59.22
59274;BME280;45044;41.572;24.730;2023-09-19T10:34:51;91572.25;;;25.99;56.92
59274;BME280;45044;41.572;24.730;2023-09-19T10:37:24;91583.91;;;26.26;62.16
59274;BME280;45044;41.572;24.730;2023-09-19T10:39:55;91576.16;;;26.49;63.86
59274;BME280;45044;41.572;24.730;2023-09-19T10:42:25;91583.47;;;26.63;61.45
59274;BME280;45044;41.572;24.730;2023-09-19T10:44:57;91584.22;;;25.82;60.75
59274;BME280;45044;41.572;24.730;2023-09-19T10:47:26;91583.63;;;25.63;60.74
59274;BME280;45044;41.572;24.730;2023-09-19T10:49:53;91574.84;;;26.08;67.59
59274;BME280;45044;41.572;24.730;2023-09-19T10:52:24;91570.66;;;25.92;51.28
59274;BME280;45044;41.572;24.730;2023-09-19T10:54:54;91567.91;;;26.37;55.56
59274;BME280;45044;41.572;24.730;2023-09-19T10:57:24;91555.91;;;26.53;53.44
59274;BME280;45044;41.572;24.730;2023-09-19T11:00:07;91559.81;;;26.37;62.63
59274;BME280;45044;41.572;24.730;2023-09-19T11:05:40;91557.44;;;26.24;62.23
59274;BME280;45044;41.572;24.730;2023-09-19T11:08:10;91547.72;;;25.81;63.86
59274;BME280;45044;41.572;24.730;2023-09-19T11:10:48;91548.56;;;25.73;65.58
59274;BME280;45044;41.572;24.730;2023-09-19T11:13:29;91543.28;;;25.93;68.82
59274;BME280;45044;41.572;24.730;2023-09-19T11:27:09;91530.19;;;26.37;53.71
59274;BME280;45044;41.572;24.730;2023-09-19T11:29:36;91532.97;;;26.43;53.40
59274;BME280;45044;41.572;24.730;2023-09-19T11:32:04;91528.59;;;26.66;55.09
59274;BME280;45044;41.572;24.730;2023-09-19T11:42:44;91518.34;;;27.12;51.99
59274;BME280;45044;41.572;24.730;2023-09-19T11:48:15;91518.41;;;27.45;54.77
59274;BME280;45044;41.572;24.730;2023-09-19T11:50:42;91514.03;;;27.21;55.60
59274;BME280;45044;41.572;24.730;2023-09-19T11:53:13;91518.88;;;26.96;52.04
59274;BME280;45044;41.572;24.730;2023-09-19T11:55:44;91510.28;;;26.91;55.11
59274;BME280;45044;41.572;24.730;2023-09-19T11:58:13;91494.09;;;27.12;51.99
59274;BME280;45044;41.572;24.730;2023-09-19T12:00:44;91506.50;;;27.04;59.20
59274;BME280;45044;41.572;24.730;2023-09-19T12:03:12;91489.53;;;26.56;58.73
59274;BME280;45044;41.572;24.730;2023-09-19T12:05:41;91498.72;;;26.64;60.24
59274;BME280;45044;41.572;24.730;2023-09-19T12:08:08;91497.31;;;26.96;54.44
59274;BME280;45044;41.572;24.730;2023-09-19T12:10:48;91497.41;;;26.60;58.84
59274;BME280;45044;41.572;24.730;2023-09-19T12:13:17;91489.84;;;26.43;66.29
59274;BME280;45044;41.572;24.730;2023-09-19T12:15:45;91492.22;;;26.56;57.63
59274;BME280;45044;41.572;24.730;2023-09-19T12:18:30;91495.41;;;26.54;62.05
59274;BME280;45044;41.572;24.730;2023-09-19T12:20:57;91481.28;;;26.24;55.75
59274;BME280;45044;41.572;24.730;2023-09-19T12:23:25;91483.22;;;26.23;58.83
59274;BME280;45044;41.572;24.730;2023-09-19T12:25:54;91479.81;;;26.43;58.21
59274;BME280;45044;41.572;24.730;2023-09-19T12:28:27;91476.69;;;26.30;57.58
59274;BME280;45044;41.572;24.730;2023-09-19T12:31:06;91473.09;;;26.54;59.19
59274;BME280;45044;41.572;24.730;2023-09-19T12:33:34;91472.31;;;26.33;58.38
59274;BME280;45044;41.572;24.730;2023-09-19T12:36:19;91473.59;;;26.16;57.38
59274;BME280;45044;41.572;24.730;2023-09-19T12:38:51;91479.31;;;26.24;63.42
59274;BME280;45044;41.572;24.730;2023-09-19T12:41:20;91468.97;;;26.02;60.12
59274;BME280;45044;41.572;24.730;2023-09-19T12:43:48;91470.53;;;25.73;67.20
59274;BME280;45044;41.572;24.730;2023-09-19T12:46:22;91473.38;;;25.84;61.87
59274;BME280;45044;41.572;24.730;2023-09-19T12:49:17;91468.59;;;26.30;66.92
59274;BME280;45044;41.572;24.730;2023-09-19T12:51:48;91467.03;;;26.38;61.42
59274;BME280;45044;41.572;24.730;2023-09-19T12:54:16;91471.56;;;26.11;59.20
59274;BME280;45044;41.572;24.730;2023-09-19T12:56:44;91466.19;;;26.32;53.38
59274;BME280;45044;41.572;24.730;2023-09-19T12:59:13;91466.97;;;25.97;58.55
59274;BME280;45044;41.572;24.730;2023-09-19T13:01:41;91470.88;;;25.50;60.28
59274;BME280;45044;41.572;24.730;2023-09-19T13:04:21;91459.97;;;25.23;60.57
59274;BME280;45044;41.572;24.730;2023-09-19T13:06:56;91468.31;;;25.41;59.40
59274;BME280;45044;41.572;24.730;2023-09-19T13:09:27;91458.38;;;25.62;62.86
59274;BME280;45044;41.572;24.730;2023-09-19T13:12:02;91456.97;;;25.82;62.58
59274;BME280;45044;41.572;24.730;2023-09-19T13:14:33;91445.19;;;25.64;59.82
59274;BME280;45044;41.572;24.730;2023-09-19T13:17:07;91449.56;;;25.46;63.58
59274;BME280;45044;41.572;24.730;2023-09-19T13:19:47;91452.63;;;25.39;63.60
59274;BME280;45044;41.572;24.730;2023-09-19T13:22:37;91449.94;;;25.69;55.02
59274;BME280;45044;41.572;24.730;2023-09-19T13:25:14;91438.16;;;25.52;60.40
59274;BME280;45044;41.572;24.730;2023-09-19T13:27:49;91450.13;;;25.51;53.03
59274;BME280;45044;41.572;24.730;2023-09-19T13:30:22;91452.63;;;25.69;59.65
59274;BME280;45044;41.572;24.730;2023-09-19T13:32:52;91455.31;;;25.54;53.87
59274;BME280;45044;41.572;24.730;2023-09-19T13:35:19;91449.56;;;25.46;55.55
59274;BME280;45044;41.572;24.730;2023-09-19T13:37:47;91457.00;;;25.06;52.67
59274;BME280;45044;41.572;24.730;2023-09-19T13:40:15;91453.28;;;25.34;57.02
59274;BME280;45044;41.572;24.730;2023-09-19T13:42:43;91452.91;;;25.41;53.23
59274;BME280;45044;41.572;24.730;2023-09-19T13:45:10;91453.25;;;25.64;54.81
59274;BME280;45044;41.572;24.730;2023-09-19T13:47:39;91446.03;;;25.70;51.11
59274;BME280;45044;41.572;24.730;2023-09-19T13:50:08;91451.88;;;25.69;51.92